sensor_id;sensor_type;location;lat;lon;timestamp;pressure;altitude;pressure_sealevel;temperature;humidity
34124;BME280;13153;52.316;21.166;2023-09-12T00:02:07;100113.47;;;24.54;51.79
34124;BME280;13153;52.316;21.166;2023-09-12T00:04:35;100115.41;;;24.50;51.66
34124;BME280;13153;52.316;21.166;2023-09-12T00:07:01;100124.47;;;24.48;51.83
34124;BME280;13153;52.316;21.166;2023-09-12T00:09:27;100112.00;;;24.45;51.57
34124;BME280;13153;52.316;21.166;2023-09-12T00:11:53;100111.16;;;24.43;51.79
34124;BME280;13153;52.316;21.166;2023-09-12T00:14:20;100108.59;;;24.40;51.89
34124;BME280;13153;52.316;21.166;2023-09-12T00:16:46;100107.69;;;24.40;52.02
34124;BME280;13153;52.316;21.166;2023-09-12T00:19:12;100102.44;;;24.36;51.97
34124;BME280;13153;52.316;21.166;2023-09-12T00:21:38;100107.09;;;24.31;52.01
34124;BME280;13153;52.316;21.166;2023-09-12T00:24:04;100112.78;;;24.22;52.18
34124;BME280;13153;52.316;21.166;2023-09-12T00:26:30;100111.16;;;24.17;52.02
34124;BME280;13153;52.316;21.166;2023-09-12T00:28:56;100105.06;;;24.12;52.36
34124;BME280;13153;52.316;21.166;2023-09-12T00:31:22;100104.22;;;24.10;52.28
34124;BME280;13153;52.316;21.166;2023-09-12T00:33:48;100106.97;;;24.08;52.37
34124;BME280;13153;52.316;21.166;2023-09-12T00:36:14;100107.91;;;24.07;52.60
34124;BME280;13153;52.316;21.166;2023-09-12T00:38:39;100106.09;;;24.08;52.61
34124;BME280;13153;52.316;21.166;2023-09-12T00:41:05;100104.34;;;24.07;52.30
34124;BME280;13153;52.316;21.166;2023-09-12T00:43:31;100102.53;;;24.07;52.60
34124;BME280;13153;52.316;21.166;2023-09-12T00:45:57;100112.34;;;24.08;52.35
34124;BME280;13153;52.316;21.166;2023-09-12T00:48:23;100102.47;;;24.09;52.40
34124;BME280;13153;52.316;21.166;2023-09-12T00:50:51;100105.13;;;24.10;52.63
34124;BME280;13153;52.316;21.166;2023-09-12T00:53:18;100103.31;;;24.11;52.44
34124;BME280;13153;52.316;21.166;2023-09-12T00:55:51;100106.00;;;24.11;52.48
34124;BME280;13153;52.316;21.166;2023-09-12T00:58:23;100101.59;;;24.08;52.59
34124;BME280;13153;52.316;21.166;2023-09-12T01:00:49;100105.16;;;24.09;52.48
34124;BME280;13153;52.316;21.166;2023-09-12T01:03:15;100105.16;;;24.09;52.57
34124;BME280;13153;52.316;21.166;2023-09-12T01:05:45;100106.03;;;24.09;52.49
34124;BME280;13153;52.316;21.166;2023-09-12T01:08:12;100105.13;;;24.10;52.74
34124;BME280;13153;52.316;21.166;2023-09-12T01:10:37;100104.28;;;24.08;53.07
34124;BME280;13153;52.316;21.166;2023-09-12T01:13:03;100111.41;;;24.09;52.94
34124;BME280;13153;52.316;21.166;2023-09-12T01:15:29;100113.22;;;24.09;53.09
34124;BME280;13153;52.316;21.166;2023-09-12T01:17:56;100106.13;;;24.06;53.01
34124;BME280;13153;52.316;21.166;2023-09-12T01:20:34;100115.09;;;24.07;53.15
34124;BME280;13153;52.316;21.166;2023-09-12T01:26:17;100109.75;;;24.05;53.25
34124;BME280;13153;52.316;21.166;2023-09-12T01:28:46;100117.88;;;24.03;52.91
34124;BME280;13153;52.316;21.166;2023-09-12T01:31:15;100115.25;;;24.02;53.00
34124;BME280;13153;52.316;21.166;2023-09-12T01:33:41;100112.50;;;24.03;53.11
34124;BME280;13153;52.316;21.166;2023-09-12T01:36:09;100115.34;;;23.99;52.88
34124;BME280;13153;52.316;21.166;2023-09-12T01:38:35;100108.25;;;23.96;53.14
34124;BME280;13153;52.316;21.166;2023-09-12T01:41:01;100115.53;;;23.93;53.11
34124;BME280;13153;52.316;21.166;2023-09-12T01:43:28;100113.88;;;23.89;53.40
34124;BME280;13153;52.316;21.166;2023-09-12T01:45:59;100113.03;;;23.87;53.94
34124;BME280;13153;52.316;21.166;2023-09-12T01:48:33;100113.91;;;23.87;54.02
34124;BME280;13153;52.316;21.166;2023-09-12T01:51:01;100117.59;;;23.85;53.56
34124;BME280;13153;52.316;21.166;2023-09-12T01:53:28;100114.16;;;23.80;53.63
34124;BME280;13153;52.316;21.166;2023-09-12T01:55:57;100112.41;;;23.79;53.72
34124;BME280;13153;52.316;21.166;2023-09-12T01:58:25;100108.78;;;23.80;54.23
34124;BME280;13153;52.316;21.166;2023-09-12T02:00:52;100111.56;;;23.77;53.94
34124;BME280;13153;52.316;21.166;2023-09-12T02:03:17;100111.03;;;23.67;53.78
34124;BME280;13153;52.316;21.166;2023-09-12T02:05:44;100112.03;;;23.63;53.93
34124;BME280;13153;52.316;21.166;2023-09-12T02:08:10;100107.59;;;23.62;53.97
34124;BME280;13153;52.316;21.166;2023-09-12T02:10:35;100113.84;;;23.62;53.85
34124;BME280;13153;52.316;21.166;2023-09-12T02:13:01;100101.53;;;23.55;53.33
34124;BME280;13153;52.316;21.166;2023-09-12T02:15:27;100114.25;;;23.49;53.52
34124;BME280;13153;52.316;21.166;2023-09-12T02:17:53;100108.13;;;23.44;53.86
34124;BME280;13153;52.316;21.166;2023-09-12T02:20:18;100106.50;;;23.38;54.02
34124;BME280;13153;52.316;21.166;2023-09-12T02:22:45;100111.88;;;23.38;53.76
34124;BME280;13153;52.316;21.166;2023-09-12T02:25:11;100112.84;;;23.35;53.50
34124;BME280;13153;52.316;21.166;2023-09-12T02:27:37;100106.63;;;23.33;53.54
34124;BME280;13153;52.316;21.166;2023-09-12T02:30:04;100110.22;;;23.34;53.60
34124;BME280;13153;52.316;21.166;2023-09-12T02:32:29;100106.72;;;23.30;53.51
34124;BME280;13153;52.316;21.166;2023-09-12T02:34:55;100109.59;;;23.24;53.60
34124;BME280;13153;52.316;21.166;2023-09-12T02:37:22;100117.78;;;23.20;53.63
34124;BME280;13153;52.316;21.166;2023-09-12T02:39:48;100115.31;;;23.12;53.81
34124;BME280;13153;52.316;21.166;2023-09-12T02:42:14;100115.50;;;23.08;53.78
34124;BME280;13153;52.316;21.166;2023-09-12T02:44:40;100112.00;;;23.04;53.99
34124;BME280;13153;52.316;21.166;2023-09-12T02:47:06;100109.38;;;23.02;54.15
34124;BME280;13153;52.316;21.166;2023-09-12T02:49:32;100113.91;;;23.00;54.42
34124;BME280;13153;52.316;21.166;2023-09-12T02:51:57;100119.31;;;22.99;54.25
34124;BME280;13153;52.316;21.166;2023-09-12T02:54:23;100107.78;;;22.95;54.37
34124;BME280;13153;52.316;21.166;2023-09-12T02:56:49;100107.78;;;22.95;54.06
34124;BME280;13153;52.316;21.166;2023-09-12T02:59:15;100112.38;;;22.92;54.27
34124;BME280;13153;52.316;21.166;2023-09-12T03:01:41;100113.25;;;22.92;54.12
34124;BME280;13153;52.316;21.166;2023-09-12T03:04:07;100112.31;;;22.93;54.13
34124;BME280;13153;52.316;21.166;2023-09-12T03:06:32;100113.16;;;22.95;53.92
34124;BME280;13153;52.316;21.166;2023-09-12T03:08:58;100107.69;;;22.98;54.14
34124;BME280;13153;52.316;21.166;2023-09-12T03:11:26;100107.66;;;23.00;53.69
34124;BME280;13153;52.316;21.166;2023-09-12T03:13:53;100108.53;;;23.00;53.22
34124;BME280;13153;52.316;21.166;2023-09-12T03:16:19;100105.91;;;22.99;53.26
34124;BME280;13153;52.316;21.166;2023-09-12T03:18:44;100115.75;;;22.98;53.07
34124;BME280;13153;52.316;21.166;2023-09-12T03:21:10;100117.66;;;22.95;53.23
34124;BME280;13153;52.316;21.166;2023-09-12T03:23:36;100106.94;;;22.93;53.28
34124;BME280;13153;52.316;21.166;2023-09-12T03:26:06;100111.47;;;22.91;53.58
34124;BME280;13153;52.316;21.166;2023-09-12T03:28:33;100105.28;;;22.89;53.51
34124;BME280;13153;52.316;21.166;2023-09-12T03:31:13;100109.75;;;22.89;53.94
34124;BME280;13153;52.316;21.166;2023-09-12T03:33:41;100116.97;;;22.87;53.74
34124;BME280;13153;52.316;21.166;2023-09-12T03:36:08;100114.41;;;22.82;53.71
34124;BME280;13153;52.316;21.166;2023-09-12T03:38:35;100126.03;;;22.83;53.30
34124;BME280;13153;52.316;21.166;2023-09-12T03:41:01;100122.50;;;22.81;53.68
34124;BME280;13153;52.316;21.166;2023-09-12T03:43:27;100122.56;;;22.78;53.95
34124;BME280;13153;52.316;21.166;2023-09-12T03:45:53;100127.03;;;22.77;53.91
34124;BME280;13153;52.316;21.166;2023-09-12T03:48:19;100125.28;;;22.76;54.18
34124;BME280;13153;52.316;21.166;2023-09-12T03:50:45;100124.31;;;22.80;54.02
34124;BME280;13153;52.316;21.166;2023-09-12T03:53:14;100120.75;;;22.80;54.05
34124;BME280;13153;52.316;21.166;2023-09-12T03:55:39;100127.88;;;22.81;53.93
34124;BME280;13153;52.316;21.166;2023-09-12T03:58:05;100130.56;;;22.81;53.65
34124;BME280;13153;52.316;21.166;2023-09-12T04:00:31;100133.28;;;22.79;53.61
34124;BME280;13153;52.316;21.166;2023-09-12T04:02:57;100124.38;;;22.77;53.64
34124;BME280;13153;52.316;21.166;2023-09-12T04:05:22;100129.72;;;22.77;53.81
34124;BME280;13153;52.316;21.166;2023-09-12T04:07:48;100127.00;;;22.80;53.68
34124;BME280;13153;52.316;21.166;2023-09-12T04:10:14;100131.41;;;22.83;53.33
34124;BME280;13153;52.316;21.166;2023-09-12T04:12:40;100122.50;;;22.81;53.45
34124;BME280;13153;52.316;21.166;2023-09-12T04:15:06;100123.44;;;22.78;54.04
34124;BME280;13153;52.316;21.166;2023-09-12T04:17:32;100127.03;;;22.79;54.20
34124;BME280;13153;52.316;21.166;2023-09-12T04:19:58;100132.38;;;22.80;53.99
34124;BME280;13153;52.316;21.166;2023-09-12T04:22:23;100125.16;;;22.82;54.00
34124;BME280;13153;52.316;21.166;2023-09-12T04:24:49;100127.75;;;22.85;54.10
34124;BME280;13153;52.316;21.166;2023-09-12T04:27:15;100127.66;;;22.88;54.01
34124;BME280;13153;52.316;21.166;2023-09-12T04:29:40;100129.34;;;22.92;53.99
34124;BME280;13153;52.316;21.166;2023-09-12T04:32:06;100120.16;;;23.01;54.06
34124;BME280;13153;52.316;21.166;2023-09-12T04:34:32;100133.44;;;23.05;53.46
34124;BME280;13153;52.316;21.166;2023-09-12T04:36:58;100126.94;;;23.13;53.36
34124;BME280;13153;52.316;21.166;2023-09-12T04:39:24;100133.06;;;23.18;53.73
34124;BME280;13153;52.316;21.166;2023-09-12T04:41:50;100127.50;;;23.24;54.11
34124;BME280;13153;52.316;21.166;2023-09-12T04:44:15;100134.38;;;23.34;54.20
34124;BME280;13153;52.316;21.166;2023-09-12T04:46:41;100134.97;;;23.44;54.01
34124;BME280;13153;52.316;21.166;2023-09-12T04:49:07;100135.53;;;23.56;53.94
34124;BME280;13153;52.316;21.166;2023-09-12T04:51:32;100134.38;;;23.65;53.65
34124;BME280;13153;52.316;21.166;2023-09-12T04:53:58;100135.81;;;23.75;53.39
34124;BME280;13153;52.316;21.166;2023-09-12T04:56:24;100135.47;;;23.86;53.54
34124;BME280;13153;52.316;21.166;2023-09-12T04:58:50;100143.72;;;24.08;53.52
34124;BME280;13153;52.316;21.166;2023-09-12T05:01:16;100145.88;;;24.24;53.41
34124;BME280;13153;52.316;21.166;2023-09-12T05:03:43;100138.38;;;24.34;52.83
34124;BME280;13153;52.316;21.166;2023-09-12T05:06:13;100141.72;;;24.41;53.13
34124;BME280;13153;52.316;21.166;2023-09-12T05:08:39;100140.75;;;24.43;52.64
34124;BME280;13153;52.316;21.166;2023-09-12T05:11:04;100143.22;;;24.49;53.03
34124;BME280;13153;52.316;21.166;2023-09-12T05:13:30;100142.16;;;24.55;52.55
34124;BME280;13153;52.316;21.166;2023-09-12T05:15:56;100144.63;;;24.61;52.67
34124;BME280;13153;52.316;21.166;2023-09-12T05:18:22;100152.44;;;24.68;52.91
34124;BME280;13153;52.316;21.166;2023-09-12T05:20:49;100148.69;;;24.73;52.67
34124;BME280;13153;52.316;21.166;2023-09-12T05:23:15;100152.88;;;24.81;52.64
34124;BME280;13153;52.316;21.166;2023-09-12T05:25:41;100157.13;;;24.87;52.62
34124;BME280;13153;52.316;21.166;2023-09-12T05:28:06;100161.41;;;24.92;52.78
34124;BME280;13153;52.316;21.166;2023-09-12T05:30:32;100158.59;;;24.97;52.94
34124;BME280;13153;52.316;21.166;2023-09-12T05:32:58;100158.31;;;25.05;52.70
34124;BME280;13153;52.316;21.166;2023-09-12T05:35:24;100160.50;;;25.18;52.31
34124;BME280;13153;52.316;21.166;2023-09-12T05:37:51;100158.94;;;25.36;52.19
34124;BME280;13153;52.316;21.166;2023-09-12T05:40:18;100154.94;;;25.46;51.97
34124;BME280;13153;52.316;21.166;2023-09-12T05:42:44;100161.34;;;25.67;51.89
34124;BME280;13153;52.316;21.166;2023-09-12T05:45:10;100167.69;;;26.33;50.63
34124;BME280;13153;52.316;21.166;2023-09-12T05:47:36;100164.59;;;27.05;48.91
34124;BME280;13153;52.316;21.166;2023-09-12T05:50:02;100164.09;;;27.54;47.73
34124;BME280;13153;52.316;21.166;2023-09-12T05:52:31;100165.91;;;27.54;47.66
34124;BME280;13153;52.316;21.166;2023-09-12T05:54:57;100171.38;;;27.52;47.83
34124;BME280;13153;52.316;21.166;2023-09-12T05:57:22;100159.94;;;27.85;46.98
34124;BME280;13153;52.316;21.166;2023-09-12T05:59:49;100156.50;;;28.00;47.15
34124;BME280;13153;52.316;21.166;2023-09-12T06:02:15;100163.13;;;28.31;46.22
34124;BME280;13153;52.316;21.166;2023-09-12T06:04:43;100160.53;;;28.64;45.82
34124;BME280;13153;52.316;21.166;2023-09-12T06:07:09;100166.88;;;29.14;44.81
34124;BME280;13153;52.316;21.166;2023-09-12T06:09:35;100167.53;;;29.68;43.79
34124;BME280;13153;52.316;21.166;2023-09-12T06:12:02;100163.38;;;30.10;42.86
34124;BME280;13153;52.316;21.166;2023-09-12T06:14:28;100173.94;;;30.46;42.22
34124;BME280;13153;52.316;21.166;2023-09-12T06:16:53;100168.91;;;30.70;41.87
34124;BME280;13153;52.316;21.166;2023-09-12T06:19:19;100177.72;;;31.03;41.76
34124;BME280;13153;52.316;21.166;2023-09-12T06:21:45;100173.50;;;31.42;40.80
34124;BME280;13153;52.316;21.166;2023-09-12T06:24:14;100170.88;;;31.83;40.37
34124;BME280;13153;52.316;21.166;2023-09-12T06:26:41;100175.78;;;32.05;39.23
34124;BME280;13153;52.316;21.166;2023-09-12T06:29:07;100177.09;;;31.57;39.54
34124;BME280;13153;52.316;21.166;2023-09-12T06:31:33;100183.44;;;30.99;40.41
34124;BME280;13153;52.316;21.166;2023-09-12T06:33:59;100183.16;;;30.59;41.66
34124;BME280;13153;52.316;21.166;2023-09-12T06:36:25;100184.00;;;30.44;42.23
34124;BME280;13153;52.316;21.166;2023-09-12T06:38:52;100181.06;;;30.33;42.51
34124;BME280;13153;52.316;21.166;2023-09-12T06:41:21;100186.06;;;30.70;41.24
34124;BME280;13153;52.316;21.166;2023-09-12T06:43:47;100186.53;;;30.63;41.22
34124;BME280;13153;52.316;21.166;2023-09-12T06:46:14;100184.22;;;31.01;41.44
34124;BME280;13153;52.316;21.166;2023-09-12T06:48:39;100185.06;;;31.88;39.52
34124;BME280;13153;52.316;21.166;2023-09-12T06:51:07;100182.69;;;32.64;37.93
34124;BME280;13153;52.316;21.166;2023-09-12T06:53:34;100184.38;;;33.32;36.98
34124;BME280;13153;52.316;21.166;2023-09-12T06:56:00;100178.19;;;33.79;36.30
34124;BME280;13153;52.316;21.166;2023-09-12T06:58:26;100183.13;;;34.23;36.15
34124;BME280;13153;52.316;21.166;2023-09-12T07:00:51;100190.84;;;34.42;35.42
34124;BME280;13153;52.316;21.166;2023-09-12T07:03:17;100193.03;;;34.61;35.18
34124;BME280;13153;52.316;21.166;2023-09-12T07:05:43;100197.78;;;34.70;35.34
34124;BME280;13153;52.316;21.166;2023-09-12T07:08:10;100190.78;;;34.55;34.53
34124;BME280;13153;52.316;21.166;2023-09-12T07:10:36;100191.63;;;34.31;35.57
34124;BME280;13153;52.316;21.166;2023-09-12T07:13:02;100187.34;;;34.27;35.78
34124;BME280;13153;52.316;21.166;2023-09-12T07:15:28;100194.03;;;34.36;35.80
34124;BME280;13153;52.316;21.166;2023-09-12T07:17:54;100190.59;;;34.45;35.91
34124;BME280;13153;52.316;21.166;2023-09-12T07:20:22;100200.84;;;34.54;35.76
34124;BME280;13153;52.316;21.166;2023-09-12T07:22:47;100202.34;;;34.58;35.17
34124;BME280;13153;52.316;21.166;2023-09-12T07:25:14;100204.22;;;34.58;35.51
34124;BME280;13153;52.316;21.166;2023-09-12T07:27:40;100197.00;;;34.57;35.22
34124;BME280;13153;52.316;21.166;2023-09-12T07:30:07;100194.38;;;34.55;35.18
34124;BME280;13153;52.316;21.166;2023-09-12T07:32:33;100195.50;;;34.53;35.31
34124;BME280;13153;52.316;21.166;2023-09-12T07:34:59;100198.16;;;34.41;35.25
34124;BME280;13153;52.316;21.166;2023-09-12T07:37:25;100198.16;;;34.29;35.89
34124;BME280;13153;52.316;21.166;2023-09-12T07:39:51;100198.84;;;34.20;35.26
34124;BME280;13153;52.316;21.166;2023-09-12T07:42:22;100193.72;;;33.91;36.10
34124;BME280;13153;52.316;21.166;2023-09-12T07:44:48;100195.56;;;33.78;35.69
34124;BME280;13153;52.316;21.166;2023-09-12T07:47:14;100193.50;;;33.69;35.73
34124;BME280;13153;52.316;21.166;2023-09-12T07:49:40;100185.91;;;33.49;36.69
34124;BME280;13153;52.316;21.166;2023-09-12T07:52:06;100192.53;;;33.19;36.26
34124;BME280;13153;52.316;21.166;2023-09-12T07:54:32;100192.94;;;33.13;36.82
34124;BME280;13153;52.316;21.166;2023-09-12T07:56:58;100189.56;;;33.09;37.48
34124;BME280;13153;52.316;21.166;2023-09-12T07:59:25;100189.78;;;33.19;36.83
34124;BME280;13153;52.316;21.166;2023-09-12T08:01:51;100187.97;;;33.32;37.19
34124;BME280;13153;52.316;21.166;2023-09-12T08:04:17;100192.44;;;33.46;36.79
34124;BME280;13153;52.316;21.166;2023-09-12T08:06:43;100194.81;;;33.25;35.18
34124;BME280;13153;52.316;21.166;2023-09-12T08:09:09;100178.41;;;33.00;35.92
34124;BME280;13153;52.316;21.166;2023-09-12T08:11:36;100190.63;;;32.81;36.25
34124;BME280;13153;52.316;21.166;2023-09-12T08:14:01;100189.69;;;32.68;36.40
34124;BME280;13153;52.316;21.166;2023-09-12T08:16:27;100191.03;;;32.75;37.51
34124;BME280;13153;52.316;21.166;2023-09-12T08:18:53;100194.38;;;32.66;37.14
34124;BME280;13153;52.316;21.166;2023-09-12T08:21:19;100182.75;;;32.77;37.55
34124;BME280;13153;52.316;21.166;2023-09-12T08:23:45;100188.03;;;32.93;37.59
34124;BME280;13153;52.316;21.166;2023-09-12T08:26:11;100186.94;;;33.08;36.63
34124;BME280;13153;52.316;21.166;2023-09-12T08:28:37;100186.31;;;33.17;36.45
34124;BME280;13153;52.316;21.166;2023-09-12T08:31:02;100192.31;;;33.22;37.40
34124;BME280;13153;52.316;21.166;2023-09-12T08:33:28;100185.94;;;32.96;36.97
34124;BME280;13153;52.316;21.166;2023-09-12T08:35:54;100186.38;;;33.03;37.11
34124;BME280;13153;52.316;21.166;2023-09-12T08:38:20;100181.81;;;33.16;36.31
34124;BME280;13153;52.316;21.166;2023-09-12T08:40:50;100194.81;;;33.25;37.12
34124;BME280;13153;52.316;21.166;2023-09-12T08:43:17;100195.56;;;33.27;36.08
34124;BME280;13153;52.316;21.166;2023-09-12T08:45:43;100191.38;;;33.36;35.82
34124;BME280;13153;52.316;21.166;2023-09-12T08:48:11;100192.34;;;33.47;35.52
34124;BME280;13153;52.316;21.166;2023-09-12T08:50:38;100189.72;;;33.46;36.28
34124;BME280;13153;52.316;21.166;2023-09-12T08:53:05;100189.63;;;33.47;35.87
34124;BME280;13153;52.316;21.166;2023-09-12T08:55:35;100187.88;;;33.34;36.22
34124;BME280;13153;52.316;21.166;2023-09-12T08:58:04;100189.84;;;33.44;36.71
34124;BME280;13153;52.316;21.166;2023-09-12T09:00:31;100187.19;;;33.56;36.11
34124;BME280;13153;52.316;21.166;2023-09-12T09:02:59;100182.03;;;33.64;36.42
34124;BME280;13153;52.316;21.166;2023-09-12T09:05:27;100185.97;;;33.72;36.18
34124;BME280;13153;52.316;21.166;2023-09-12T09:07:53;100180.16;;;33.77;35.71
34124;BME280;13153;52.316;21.166;2023-09-12T09:10:22;100181.28;;;33.74;35.53
34124;BME280;13153;52.316;21.166;2023-09-12T09:12:48;100178.00;;;33.69;36.93
34124;BME280;13153;52.316;21.166;2023-09-12T09:15:29;100173.44;;;33.57;35.83
34124;BME280;13153;52.316;21.166;2023-09-12T09:17:57;100177.69;;;33.61;35.14
34124;BME280;13153;52.316;21.166;2023-09-12T09:20:29;100175.59;;;33.65;35.15
34124;BME280;13153;52.316;21.166;2023-09-12T09:23:08;100175.72;;;33.63;36.37
34124;BME280;13153;52.316;21.166;2023-09-12T09:25:41;100173.31;;;33.71;37.07
34124;BME280;13153;52.316;21.166;2023-09-12T09:28:18;100170.91;;;33.79;35.00
34124;BME280;13153;52.316;21.166;2023-09-12T09:30:47;100173.31;;;33.84;33.12
34124;BME280;13153;52.316;21.166;2023-09-12T09:33:14;100169.59;;;33.85;33.45
34124;BME280;13153;52.316;21.166;2023-09-12T09:35:46;100168.03;;;33.94;33.93
34124;BME280;13153;52.316;21.166;2023-09-12T09:38:13;100168.25;;;34.03;34.37
34124;BME280;13153;52.316;21.166;2023-09-12T09:40:43;100171.47;;;34.08;34.36
34124;BME280;13153;52.316;21.166;2023-09-12T09:43:09;100167.03;;;34.07;32.78
34124;BME280;13153;52.316;21.166;2023-09-12T09:45:46;100171.44;;;33.97;32.33
34124;BME280;13153;52.316;21.166;2023-09-12T09:48:23;100177.00;;;33.96;33.24
34124;BME280;13153;52.316;21.166;2023-09-12T09:50:49;100173.84;;;33.89;32.59
34124;BME280;13153;52.316;21.166;2023-09-12T09:53:15;100170.25;;;33.89;33.13
34124;BME280;13153;52.316;21.166;2023-09-12T09:55:41;100164.44;;;33.93;33.64
34124;BME280;13153;52.316;21.166;2023-09-12T09:58:15;100166.84;;;33.98;33.20
34124;BME280;13153;52.316;21.166;2023-09-12T10:00:46;100169.69;;;33.96;32.41
34124;BME280;13153;52.316;21.166;2023-09-12T10:03:18;100159.63;;;33.97;33.26
34124;BME280;13153;52.316;21.166;2023-09-12T10:05:50;100168.34;;;34.02;32.79
34124;BME280;13153;52.316;21.166;2023-09-12T10:08:17;100159.19;;;34.03;31.65
34124;BME280;13153;52.316;21.166;2023-09-12T10:10:46;100159.19;;;34.03;31.06
34124;BME280;13153;52.316;21.166;2023-09-12T10:13:14;100160.69;;;34.07;31.19
34124;BME280;13153;52.316;21.166;2023-09-12T10:15:44;100154.84;;;34.11;31.42
34124;BME280;13153;52.316;21.166;2023-09-12T10:18:18;100162.59;;;34.18;30.69
34124;BME280;13153;52.316;21.166;2023-09-12T10:20:55;100152.41;;;34.20;30.33
34124;BME280;13153;52.316;21.166;2023-09-12T10:23:47;100153.81;;;34.25;31.27
34124;BME280;13153;52.316;21.166;2023-09-12T10:26:17;100149.78;;;34.31;31.13
34124;BME280;13153;52.316;21.166;2023-09-12T10:28:43;100155.13;;;34.32;30.85
34124;BME280;13153;52.316;21.166;2023-09-12T10:31:12;100149.22;;;34.26;29.27
34124;BME280;13153;52.316;21.166;2023-09-12T10:33:39;100157.81;;;34.08;28.53
34124;BME280;13153;52.316;21.166;2023-09-12T10:36:09;100154.50;;;33.92;28.77
34124;BME280;13153;52.316;21.166;2023-09-12T10:38:42;100158.13;;;33.80;28.83
34124;BME280;13153;52.316;21.166;2023-09-12T10:41:13;100156.59;;;33.63;28.45
34124;BME280;13153;52.316;21.166;2023-09-12T10:43:41;100154.66;;;33.53;29.41
34124;BME280;13153;52.316;21.166;2023-09-12T10:46:09;100150.44;;;33.49;29.84
34124;BME280;13153;52.316;21.166;2023-09-12T10:48:36;100150.88;;;33.42;30.68
34124;BME280;13153;52.316;21.166;2023-09-12T10:51:03;100143.91;;;33.38;30.78
34124;BME280;13153;52.316;21.166;2023-09-12T10:53:31;100141.59;;;33.32;30.84
34124;BME280;13153;52.316;21.166;2023-09-12T10:56:17;100138.72;;;33.21;29.75
34124;BME280;13153;52.316;21.166;2023-09-12T11:01:43;100132.94;;;33.26;31.37
34124;BME280;13153;52.316;21.166;2023-09-12T11:06:50;100134.03;;;33.23;30.88
34124;BME280;13153;52.316;21.166;2023-09-12T11:09:23;100132.19;;;33.24;31.77
34124;BME280;13153;52.316;21.166;2023-09-12T11:12:04;100129.16;;;33.28;32.06
34124;BME280;13153;52.316;21.166;2023-09-12T11:14:33;100128.94;;;33.31;31.84
34124;BME280;13153;52.316;21.166;2023-09-12T11:19:49;100133.63;;;33.29;30.29
34124;BME280;13153;52.316;21.166;2023-09-12T11:22:29;100133.19;;;33.35;30.92
34124;BME280;13153;52.316;21.166;2023-09-12T11:24:57;100129.28;;;33.39;31.18
34124;BME280;13153;52.316;21.166;2023-09-12T11:27:33;100133.75;;;33.40;30.31
34124;BME280;13153;52.316;21.166;2023-09-12T11:30:10;100130.38;;;33.37;30.53
34124;BME280;13153;52.316;21.166;2023-09-12T11:32:37;100125.13;;;33.34;30.55
34124;BME280;13153;52.316;21.166;2023-09-12T11:35:10;100124.88;;;33.24;30.03
34124;BME280;13153;52.316;21.166;2023-09-12T11:37:37;100118.56;;;33.24;30.17
34124;BME280;13153;52.316;21.166;2023-09-12T11:42:57;100125.00;;;33.10;30.14
34124;BME280;13153;52.316;21.166;2023-09-12T11:45:24;100123.47;;;33.06;31.67
34124;BME280;13153;52.316;21.166;2023-09-12T11:47:50;100125.31;;;33.05;31.51
34124;BME280;13153;52.316;21.166;2023-09-12T11:50:34;100123.69;;;33.03;31.83
34124;BME280;13153;52.316;21.166;2023-09-12T11:53:09;100125.75;;;32.99;30.28
34124;BME280;13153;52.316;21.166;2023-09-12T11:55:57;100119.75;;;32.94;30.49
34124;BME280;13153;52.316;21.166;2023-09-12T11:58:25;100109.59;;;32.96;30.96
34124;BME280;13153;52.316;21.166;2023-09-12T12:00:55;100117.47;;;33.01;31.03
34124;BME280;13153;52.316;21.166;2023-09-12T12:03:27;100110.81;;;33.05;30.21
34124;BME280;13153;52.316;21.166;2023-09-12T12:05:55;100109.59;;;33.09;30.48
34124;BME280;13153;52.316;21.166;2023-09-12T12:08:21;100111.13;;;33.13;31.08
34124;BME280;13153;52.316;21.166;2023-09-12T12:10:51;100109.81;;;33.19;30.68
34124;BME280;13153;52.316;21.166;2023-09-12T12:13:21;100115.16;;;33.20;30.97
34124;BME280;13153;52.316;21.166;2023-09-12T12:15:50;100114.28;;;33.20;30.48
34124;BME280;13153;52.316;21.166;2023-09-12T12:18:16;100107.97;;;33.19;29.59
34124;BME280;13153;52.316;21.166;2023-09-12T12:20:43;100113.44;;;33.19;30.00
34124;BME280;13153;52.316;21.166;2023-09-12T12:23:08;100107.97;;;33.19;29.92
34124;BME280;13153;52.316;21.166;2023-09-12T12:25:35;100111.78;;;33.17;29.71
34124;BME280;13153;52.316;21.166;2023-09-12T12:28:03;100110.25;;;33.12;29.97
34124;BME280;13153;52.316;21.166;2023-09-12T12:30:34;100101.44;;;33.09;30.94
34124;BME280;13153;52.316;21.166;2023-09-12T12:33:06;100100.66;;;33.07;31.05
34124;BME280;13153;52.316;21.166;2023-09-12T12:35:32;100100.78;;;33.05;30.55
34124;BME280;13153;52.316;21.166;2023-09-12T12:37:58;100095.66;;;33.01;30.20
34124;BME280;13153;52.316;21.166;2023-09-12T12:40:24;100097.50;;;33.00;29.98
34124;BME280;13153;52.316;21.166;2023-09-12T12:42:50;100101.22;;;32.99;29.64
34124;BME280;13153;52.316;21.166;2023-09-12T12:45:23;100099.56;;;32.97;28.45
34124;BME280;13153;52.316;21.166;2023-09-12T12:47:59;100095.88;;;32.98;28.36
34124;BME280;13153;52.316;21.166;2023-09-12T12:50:25;100097.59;;;32.99;28.67
34124;BME280;13153;52.316;21.166;2023-09-12T12:52:51;100094.88;;;32.99;28.88
34124;BME280;13153;52.316;21.166;2023-09-12T12:55:17;100092.16;;;32.99;29.93
34124;BME280;13153;52.316;21.166;2023-09-12T12:57:45;100093.03;;;32.99;30.09